Latest Weather Observations for Fawkner Beacon

IDV60801

Issued at 6:03 pm EST Monday 25 September 2017 (issued every 30 minutes, with the page automatically refreshed every 10 minutes)

About weather observations | Map of weather stations | Latest weather observations for VIC | Other Formats
Station Details ID: 086376 Name: FAWKNER BEACON Lat: -37.91 Lon: 144.93 Height: 17.0 m
Data from the previous 72 hours. | See also: Recent months for locations in Victoria
Date/Time
EST
Temp
°C
App
Temp
°C
Dew
Point
°C
Rel
Hum
%
Delta-T
°C
Wind Press
QNH
hPa
Press
MSL
hPa
Rain since
9am
mm
Dir  Spd
km/h
Gust
km/h
Spd
kts
Gust
kts
25/06:00pm - - - - - SSW 22 26 12 14 - - -
25/05:30pm - - - - - SSW 24 30 13 16 - - -
25/05:00pm - - - - - SSW 26 32 14 17 - - -
25/04:30pm - - - - - SSW 30 35 16 19 - - -
25/04:00pm - - - - - SSW 35 44 19 24 - - -
25/03:47pm - - - - - S 28 43 15 23 - - -
25/03:30pm - - - - - S 19 24 10 13 - - -
25/03:00pm - - - - - S 20 26 11 14 - - -
25/02:30pm - - - - - SSW 24 32 13 17 - - -
25/02:00pm - - - - - SSW 15 20 8 11 - - -
25/01:30pm - - - - - SW 20 24 11 13 - - -
25/01:00pm - - - - - SW 28 35 15 19 - - -
25/12:48pm - - - - - SW 44 61 24 33 - - -
25/12:38pm - - - - - WSW 39 63 21 34 - - -
25/12:35pm - - - - - WSW 32 54 17 29 - - -
25/12:30pm - - - - - WSW 28 33 15 18 - - -
25/12:00pm - - - - - WSW 30 33 16 18 - - -
25/11:30am - - - - - SW 30 41 16 22 - - -
25/11:14am - - - - - SW 26 48 14 26 - - -
25/11:00am - - - - - WSW 15 20 8 11 - - -
25/10:30am - - - - - WSW 20 24 11 13 - - -
25/10:00am - - - - - WSW 24 28 13 15 - - -
25/09:30am - - - - - WSW 24 28 13 15 - - -
25/09:00am - - - - - W 26 30 14 16 - - -
25/08:30am - - - - - W 24 28 13 15 - - -
25/08:00am - - - - - W 26 32 14 17 - - -
25/07:30am - - - - - WNW 24 30 13 16 - - -
25/07:00am - - - - - W 26 30 14 16 - - -
25/06:30am - - - - - W 26 30 14 16 - - -
25/06:00am - - - - - W 30 35 16 19 - - -
25/05:30am - - - - - WNW 30 33 16 18 - - -
25/05:00am - - - - - W 35 44 19 24 - - -
25/04:48am - - - - - W 28 46 15 25 - - -
25/04:30am - - - - - W 28 33 15 18 - - -
25/04:00am - - - - - W 30 35 16 19 - - -
25/03:30am - - - - - W 37 46 20 25 - - -
25/03:00am - - - - - WNW 24 30 13 16 - - -
25/02:30am - - - - - WNW 22 28 12 15 - - -
25/02:00am - - - - - WNW 24 28 13 15 - - -
25/01:30am - - - - - WNW 22 28 12 15 - - -
25/01:00am - - - - - WNW 28 33 15 18 - - -
25/12:30am - - - - - WNW 32 41 17 22 - - -
25/12:00am - - - - - WNW 32 43 17 23 - - -
 
Date/Time
EST
Temp
°C
App
Temp
°C
Dew
Point
°C
Rel
Hum
%
Delta-T
°C
Wind Press
QNH
hPa
Press
MSL
hPa
Rain since
9am
mm
Dir  Spd
km/h
Gust
km/h
Spd
kts
Gust
kts
24/11:30pm - - - - - WNW 22 32 12 17 - - -
24/11:00pm - - - - - WNW 35 50 19 27 - - -
24/10:30pm - - - - - WNW 35 48 19 26 - - -
24/10:05pm - - - - - WNW 44 63 24 34 - - -
24/10:00pm - - - - - WNW 50 63 27 34 - - -
24/09:30pm - - - - - NW 52 70 28 38 - - -
24/09:29pm - - - - - NW 52 70 28 38 - - -
24/09:00pm - - - - - NW 56 69 30 37 - - -
24/08:30pm - - - - - NW 61 70 33 38 - - -
24/08:01pm - - - - - NW 59 78 32 42 - - -
24/08:00pm - - - - - NW 59 76 32 41 - - -
24/07:30pm - - - - - NW 52 67 28 36 - - -
24/07:20pm - - - - - NW 52 72 28 39 - - -
24/07:00pm - - - - - NW 52 63 28 34 - - -
24/06:30pm - - - - - NW 54 67 29 36 - - -
24/06:00pm - - - - - WNW 54 70 29 38 - - -
24/05:36pm - - - - - NW 57 76 31 41 - - -
24/05:30pm - - - - - NW 56 70 30 38 - - -
24/05:00pm - - - - - NW 57 76 31 41 - - -
24/04:37pm - - - - - NW 52 70 28 38 - - -
24/04:30pm - - - - - NW 54 69 29 37 - - -
24/04:11pm - - - - - NW 50 72 27 39 - - -
24/04:00pm - - - - - NW 54 67 29 36 - - -
24/03:30pm - - - - - NW 57 72 31 39 - - -
24/03:23pm - - - - - NW 52 72 28 39 - - -
24/03:00pm - - - - - NW 52 61 28 33 - - -
24/02:30pm - - - - - NW 57 78 31 42 - - -
24/02:23pm - - - - - NW 50 70 27 38 - - -
24/02:00pm - - - - - WNW 48 63 26 34 - - -
24/01:59pm - - - - - WNW 50 69 27 37 - - -
24/01:30pm - - - - - NW 48 57 26 31 - - -
24/01:18pm - - - - - NW 46 65 25 35 - - -
24/01:00pm - - - - - NW 50 61 27 33 - - -
24/12:45pm - - - - - NW 50 69 27 37 - - -
24/12:30pm - - - - - NW 50 61 27 33 - - -
24/12:06pm - - - - - NW 41 59 22 32 - - -
24/12:00pm - - - - - NW 43 57 23 31 - - -
24/11:33am - - - - - NW 44 63 24 34 - - -
24/11:30am - - - - - NW 43 54 23 29 - - -
24/11:15am - - - - - NW 44 63 24 34 - - -
24/11:11am - - - - - NW 37 57 20 31 - - -
24/11:00am - - - - - NW 39 48 21 26 - - -
24/10:30am - - - - - NW 43 54 23 29 - - -
24/10:00am - - - - - NW 46 61 25 33 - - -
24/09:30am - - - - - NW 43 48 23 26 - - -
24/09:00am - - - - - NW 44 54 24 29 - - -
24/08:30am - - - - - NW 39 48 21 26 - - -
24/08:28am - - - - - NW 37 48 20 26 - - -
24/08:00am - - - - - W 28 41 15 22 - - -
24/07:45am - - - - - NW 43 67 23 36 - - -
24/07:44am - - - - - NW 41 67 22 36 - - -
24/07:43am - - - - - NW 41 54 22 29 - - -
24/07:30am - - - - - NNW 41 50 22 27 - - -
24/07:00am - - - - - N 32 41 17 22 - - -
24/06:30am - - - - - N 33 41 18 22 - - -
24/06:00am - - - - - N 35 43 19 23 - - -
24/05:30am - - - - - N 37 44 20 24 - - -
24/05:00am - - - - - N 32 35 17 19 - - -
24/04:30am - - - - - N 20 26 11 14 - - -
24/04:00am - - - - - NNW 20 24 11 13 - - -
24/03:30am - - - - - NW 30 33 16 18 - - -
24/03:00am - - - - - NW 32 39 17 21 - - -
24/02:30am - - - - - NW 32 41 17 22 - - -
24/02:00am - - - - - NW 28 35 15 19 - - -
24/01:30am - - - - - WNW 30 33 16 18 - - -
24/01:00am - - - - - WNW 32 41 17 22 - - -
24/12:30am - - - - - NW 26 35 14 19 - - -
24/12:00am - - - - - NW 15 17 8 9 - - -
 
Date/Time
EST
Temp
°C
App
Temp
°C
Dew
Point
°C
Rel
Hum
%
Delta-T
°C
Wind Press
QNH
hPa
Press
MSL
hPa
Rain since
9am
mm
Dir  Spd
km/h
Gust
km/h
Spd
kts
Gust
kts
23/11:30pm - - - - - WNW 20 26 11 14 - - -
23/11:00pm - - - - - NW 24 28 13 15 - - -
23/10:30pm - - - - - NW 24 30 13 16 - - -
23/10:00pm - - - - - NW 22 30 12 16 - - -
23/09:30pm - - - - - NNW 17 20 9 11 - - -
23/09:00pm - - - - - WNW 20 22 11 12 - - -
23/08:30pm - - - - - WNW 15 17 8 9 - - -
23/08:00pm - - - - - W 20 22 11 12 - - -
23/07:30pm - - - - - W 19 22 10 12 - - -
23/07:00pm - - - - - W 20 24 11 13 - - -
23/06:30pm - - - - - W 24 30 13 16 - - -
23/06:00pm - - - - - SW 30 39 16 21 - - -
23/05:30pm - - - - - SSW 50 63 27 34 - - -
23/05:16pm - - - - - SW 46 65 25 35 - - -
23/05:00pm - - - - - SSW 56 69 30 37 - - -
23/04:46pm - - - - - SSW 46 67 25 36 - - -
23/04:30pm - - - - - SSW 30 50 16 27 - - -
23/04:00pm - - - - - SW 24 32 13 17 - - -
23/03:30pm - - - - - SW 28 33 15 18 - - -
23/03:00pm - - - - - SW 22 30 12 16 - - -
23/02:30pm - - - - - WSW 20 28 11 15 - - -
23/02:00pm - - - - - W 15 22 8 12 - - -
23/01:30pm - - - - - WNW 19 32 10 17 - - -
23/01:00pm - - - - - SSE 4 13 2 7 - - -
23/12:30pm - - - - - NNW 22 33 12 18 - - -
23/12:00pm - - - - - N 24 33 13 18 - - -
23/11:30am - - - - - N 33 41 18 22 - - -
23/11:00am - - - - - N 32 41 17 22 - - -
23/10:30am - - - - - NNW 32 35 17 19 - - -
23/10:00am - - - - - NW 19 26 10 14 - - -
23/09:30am - - - - - WNW 24 30 13 16 - - -
23/09:00am - - - - - N 15 20 8 11 - - -
23/08:30am - - - - - NNW 28 30 15 16 - - -
23/08:00am - - - - - NNW 24 32 13 17 - - -
23/07:30am - - - - - N 32 39 17 21 - - -
23/07:00am - - - - - N 43 50 23 27 - - -
23/06:30am - - - - - N 43 48 23 26 - - -
23/06:00am - - - - - N 43 46 23 25 - - -
23/05:30am - - - - - N 43 48 23 26 - - -
23/05:00am - - - - - N 46 52 25 28 - - -
23/04:30am - - - - - N 41 43 22 23 - - -
23/04:00am - - - - - NNE 41 44 22 24 - - -
23/03:30am - - - - - N 33 41 18 22 - - -
23/03:00am - - - - - N 26 30 14 16 - - -
23/02:30am - - - - - N 33 39 18 21 - - -
23/02:00am - - - - - NNE 32 33 17 18 - - -
23/01:30am - - - - - N 15 20 8 11 - - -
23/01:00am - - - - - N 15 22 8 12 - - -
23/12:30am - - - - - NNE 30 33 16 18 - - -
23/12:00am - - - - - NNE 28 32 15 17 - - -
 
Date/Time
EST
Temp
°C
App
Temp
°C
Dew
Point
°C
Rel
Hum
%
Delta-T
°C
Wind Press
QNH
hPa
Press
MSL
hPa
Rain since
9am
mm
Dir  Spd
km/h
Gust
km/h
Spd
kts
Gust
kts
22/11:30pm - - - - - N 26 30 14 16 - - -
22/11:00pm - - - - - N 24 26 13 14 - - -
22/10:30pm - - - - - NNE 26 28 14 15 - - -
22/10:00pm - - - - - N 30 32 16 17 - - -
22/09:30pm - - - - - N 26 30 14 16 - - -
22/09:00pm - - - - - N 32 39 17 21 - - -
22/08:30pm - - - - - N 19 24 10 13 - - -
22/08:00pm - - - - - N 20 28 11 15 - - -
22/07:30pm - - - - - N 32 39 17 21 - - -
22/07:00pm - - - - - N 35 41 19 22 - - -
22/06:30pm - - - - - N 33 39 18 21 - - -

Other Formats:

Comma delimited format used in spreadsheet applications
http://www.bom.gov.au/fwo/IDV60801/IDV60801.95872.axf

JavaScript Object Notation format (JSON) in row-major order
http://www.bom.gov.au/fwo/IDV60801/IDV60801.95872.json